Henderson, Nebraska
Current Conditions -  °F | °C
As of 4:55 AM on Friday 31 Oct 2014 (Local Time) from KAUH Reporting Station
Overcast Overcast  
Wind Chill: 21°   Ceiling: 2300
Heat Index: 32°   Visibility: 10mi
Dew Point: 23°   Wind: 17mph
Humidity: 68%   Direction: 20°NNE
Pressure: 30.5"   Gusts: NA
Location:  40.78°N, 97.81°W
Report Text: KAUH 310955Z AUTO 02015KT 10SM OVC023 00/M05 A3050 RMK AO2 T00021050
Loading
Personal Weather Stations






























Interactive Weather Map New forecast layout! Learn more

10-Day Weather Forecast

Advertisements
Track Severe Weather on mobile